sensor_id;sensor_type;location;lat;lon;timestamp;pressure;altitude;pressure_sealevel;temperature;humidity
48792;BME280;34587;48.816;9.420;2024-01-27T00:02:23;100572.72;;;0.24;100.00
48792;BME280;34587;48.816;9.420;2024-01-27T00:04:49;100572.56;;;0.21;100.00
48792;BME280;34587;48.816;9.420;2024-01-27T00:07:14;100577.56;;;0.52;100.00
48792;BME280;34587;48.816;9.420;2024-01-27T00:09:40;100583.06;;;0.28;100.00
48792;BME280;34587;48.816;9.420;2024-01-27T00:12:06;100585.22;;;0.20;100.00
48792;BME280;34587;48.816;9.420;2024-01-27T00:14:31;100580.63;;;0.29;100.00
48792;BME280;34587;48.816;9.420;2024-01-27T00:16:57;100588.41;;;0.16;100.00
48792;BME280;34587;48.816;9.420;2024-01-27T00:19:22;100587.19;;;0.09;100.00
48792;BME280;34587;48.816;9.420;2024-01-27T00:21:47;100590.16;;;0.01;100.00
48792;BME280;34587;48.816;9.420;2024-01-27T00:24:13;100596.56;;;-0.06;100.00
48792;BME280;34587;48.816;9.420;2024-01-27T00:26:39;100599.91;;;-0.07;100.00
48792;BME280;34587;48.816;9.420;2024-01-27T00:29:04;100599.75;;;-0.10;100.00
48792;BME280;34587;48.816;9.420;2024-01-27T00:31:29;100600.88;;;-0.05;100.00
48792;BME280;34587;48.816;9.420;2024-01-27T00:33:54;100598.78;;;-0.12;100.00
48792;BME280;34587;48.816;9.420;2024-01-27T00:36:20;100597.06;;;0.03;100.00
48792;BME280;34587;48.816;9.420;2024-01-27T00:38:45;100605.50;;;0.02;100.00
48792;BME280;34587;48.816;9.420;2024-01-27T00:41:16;100607.75;;;0.12;100.00
48792;BME280;34587;48.816;9.420;2024-01-27T00:43:41;100604.25;;;0.10;100.00
48792;BME280;34587;48.816;9.420;2024-01-27T00:46:06;100607.75;;;0.12;100.00
48792;BME280;34587;48.816;9.420;2024-01-27T00:48:32;100603.53;;;0.13;100.00
48792;BME280;34587;48.816;9.420;2024-01-27T00:50:57;100603.75;;;0.01;100.00
48792;BME280;34587;48.816;9.420;2024-01-27T00:53:22;100604.78;;;0.05;100.00
48792;BME280;34587;48.816;9.420;2024-01-27T00:55:48;100607.44;;;0.06;100.00
48792;BME280;34587;48.816;9.420;2024-01-27T00:58:15;100610.59;;;0.02;100.00
48792;BME280;34587;48.816;9.420;2024-01-27T05:15:44;100789.84;;;-1.94;100.00
48792;BME280;34587;48.816;9.420;2024-01-27T05:18:10;100793.09;;;-1.96;100.00
48792;BME280;34587;48.816;9.420;2024-01-27T05:20:35;100801.88;;;-1.91;100.00
48792;BME280;34587;48.816;9.420;2024-01-27T05:23:00;100800.78;;;-1.95;100.00
48792;BME280;34587;48.816;9.420;2024-01-27T05:25:26;100794.75;;;-1.97;100.00
48792;BME280;34587;48.816;9.420;2024-01-27T05:27:51;100796.00;;;-2.03;100.00
48792;BME280;34587;48.816;9.420;2024-01-27T05:30:16;100797.28;;;-1.97;100.00
48792;BME280;34587;48.816;9.420;2024-01-27T05:32:42;100809.41;;;-1.93;100.00
48792;BME280;34587;48.816;9.420;2024-01-27T05:35:08;100803.34;;;-1.95;100.00
48792;BME280;34587;48.816;9.420;2024-01-27T05:37:34;100801.56;;;-2.09;100.00
48792;BME280;34587;48.816;9.420;2024-01-27T05:39:59;100807.34;;;-2.12;100.00
48792;BME280;34587;48.816;9.420;2024-01-27T05:42:25;100803.63;;;-2.17;100.00
48792;BME280;34587;48.816;9.420;2024-01-27T05:44:50;100802.75;;;-2.17;100.00
48792;BME280;34587;48.816;9.420;2024-01-27T05:47:16;100804.28;;;-2.19;100.00
48792;BME280;34587;48.816;9.420;2024-01-27T05:49:41;100807.34;;;-2.12;100.00
48792;BME280;34587;48.816;9.420;2024-01-27T05:52:06;100810.94;;;-2.08;100.00
48792;BME280;34587;48.816;9.420;2024-01-27T05:54:31;100807.63;;;-2.20;100.00
48792;BME280;34587;48.816;9.420;2024-01-27T05:56:57;100811.34;;;-2.15;100.00
48792;BME280;34587;48.816;9.420;2024-01-27T05:59:23;100806.44;;;-2.25;100.00
48792;BME280;34587;48.816;9.420;2024-01-27T06:01:48;100803.41;;;-2.20;100.00
48792;BME280;34587;48.816;9.420;2024-01-27T06:04:13;100797.25;;;-2.23;100.00
48792;BME280;34587;48.816;9.420;2024-01-27T06:06:39;100806.03;;;-2.18;100.00
48792;BME280;34587;48.816;9.420;2024-01-27T06:09:07;100816.63;;;-2.12;100.00
48792;BME280;34587;48.816;9.420;2024-01-27T06:11:36;100819.72;;;-2.16;100.00
48792;BME280;34587;48.816;9.420;2024-01-27T06:14:01;100813.25;;;-2.24;100.00
48792;BME280;34587;48.816;9.420;2024-01-27T06:16:27;100824.00;;;-2.28;100.00
48792;BME280;34587;48.816;9.420;2024-01-27T06:18:52;100815.88;;;-2.23;100.00
48792;BME280;34587;48.816;9.420;2024-01-27T06:21:19;100817.28;;;-2.15;100.00
48792;BME280;34587;48.816;9.420;2024-01-27T06:23:44;100813.09;;;-2.14;100.00
48792;BME280;34587;48.816;9.420;2024-01-27T06:26:12;100818.84;;;-2.17;100.00
48792;BME280;34587;48.816;9.420;2024-01-27T06:28:38;100814.66;;;-2.16;100.00
48792;BME280;34587;48.816;9.420;2024-01-27T06:31:03;100823.16;;;-2.16;100.00
48792;BME280;34587;48.816;9.420;2024-01-27T06:33:29;100827.72;;;-2.23;100.00
48792;BME280;34587;48.816;9.420;2024-01-27T06:35:54;100823.31;;;-2.26;100.00
48792;BME280;34587;48.816;9.420;2024-01-27T06:38:20;100825.38;;;-2.20;100.00
48792;BME280;34587;48.816;9.420;2024-01-27T06:40:45;100832.03;;;-2.09;100.00
48792;BME280;34587;48.816;9.420;2024-01-27T06:43:13;100834.41;;;-2.12;100.00
48792;BME280;34587;48.816;9.420;2024-01-27T06:45:39;100838.28;;;-2.17;100.00
48792;BME280;34587;48.816;9.420;2024-01-27T06:48:05;100838.06;;;-2.20;100.00
48792;BME280;34587;48.816;9.420;2024-01-27T06:50:32;100841.59;;;-2.18;100.00
48792;BME280;34587;48.816;9.420;2024-01-27T06:52:57;100835.72;;;-2.30;100.00
48792;BME280;34587;48.816;9.420;2024-01-27T06:55:22;100837.47;;;-2.29;100.00
48792;BME280;34587;48.816;9.420;2024-01-27T06:57:48;100839.44;;;-2.25;100.00
48792;BME280;34587;48.816;9.420;2024-01-27T07:00:13;100841.19;;;-2.24;100.00
48792;BME280;34587;48.816;9.420;2024-01-27T07:02:40;100837.47;;;-2.29;100.00
48792;BME280;34587;48.816;9.420;2024-01-27T07:05:07;100833.34;;;-2.27;100.00
48792;BME280;34587;48.816;9.420;2024-01-27T07:07:32;100828.88;;;-2.31;100.00
48792;BME280;34587;48.816;9.420;2024-01-27T07:09:58;100831.44;;;-2.18;100.00
48792;BME280;34587;48.816;9.420;2024-01-27T07:12:23;100841.19;;;-2.24;100.00
48792;BME280;34587;48.816;9.420;2024-01-27T07:14:49;100837.78;;;-2.25;100.00
48792;BME280;34587;48.816;9.420;2024-01-27T07:17:14;100844.28;;;-2.28;100.00
48792;BME280;34587;48.816;9.420;2024-01-27T07:19:40;100850.53;;;-2.37;100.00
48792;BME280;34587;48.816;9.420;2024-01-27T07:22:05;100841.94;;;-2.39;100.00
48792;BME280;34587;48.816;9.420;2024-01-27T07:24:31;100850.53;;;-2.37;100.00
48792;BME280;34587;48.816;9.420;2024-01-27T07:26:57;100847.41;;;-2.33;100.00
48792;BME280;34587;48.816;9.420;2024-01-27T07:29:23;100849.09;;;-2.20;100.00
48792;BME280;34587;48.816;9.420;2024-01-27T07:31:49;100853.03;;;-2.12;100.00
48792;BME280;34587;48.816;9.420;2024-01-27T07:34:15;100842.41;;;-2.06;100.00
48792;BME280;34587;48.816;9.420;2024-01-27T07:36:40;100851.47;;;-2.10;100.00
48792;BME280;34587;48.816;9.420;2024-01-27T07:39:05;100845.31;;;-2.13;100.00
48792;BME280;34587;48.816;9.420;2024-01-27T07:41:31;100843.38;;;-2.04;100.00
48792;BME280;34587;48.816;9.420;2024-01-27T07:43:56;100847.09;;;-2.12;100.00
48792;BME280;34587;48.816;9.420;2024-01-27T07:46:22;100839.78;;;-2.08;100.00
48792;BME280;34587;48.816;9.420;2024-01-27T07:48:51;100844.06;;;-2.07;100.00
48792;BME280;34587;48.816;9.420;2024-01-27T07:51:16;100845.84;;;-1.92;100.00
48792;BME280;34587;48.816;9.420;2024-01-27T07:53:41;100848.88;;;-1.85;100.00
48792;BME280;34587;48.816;9.420;2024-01-27T07:56:07;100852.19;;;-1.86;100.00
48792;BME280;34587;48.816;9.420;2024-01-27T07:58:33;100857.66;;;-1.79;100.00
48792;BME280;34587;48.816;9.420;2024-01-27T08:00:59;100847.03;;;-1.74;100.00
48792;BME280;34587;48.816;9.420;2024-01-27T08:03:24;100850.84;;;-1.81;100.00
48792;BME280;34587;48.816;9.420;2024-01-27T08:05:49;100847.28;;;-2.09;100.00
48792;BME280;34587;48.816;9.420;2024-01-27T08:08:15;100852.84;;;-2.15;100.00
48792;BME280;34587;48.816;9.420;2024-01-27T08:10:40;100851.41;;;-1.98;100.00
48792;BME280;34587;48.816;9.420;2024-01-27T08:13:05;100852.19;;;-1.86;100.00
48792;BME280;34587;48.816;9.420;2024-01-27T08:15:32;100835.41;;;-1.57;100.00
48792;BME280;34587;48.816;9.420;2024-01-27T08:17:57;100845.72;;;-1.27;100.00
48792;BME280;34587;48.816;9.420;2024-01-27T08:20:22;100843.84;;;-1.04;100.00
48792;BME280;34587;48.816;9.420;2024-01-27T08:22:48;100846.16;;;-0.65;100.00
48792;BME280;34587;48.816;9.420;2024-01-27T08:25:16;100839.88;;;-0.57;100.00
48792;BME280;34587;48.816;9.420;2024-01-27T08:27:42;100841.88;;;-0.66;100.00
48792;BME280;34587;48.816;9.420;2024-01-27T08:30:07;100839.91;;;-0.70;100.00
48792;BME280;34587;48.816;9.420;2024-01-27T08:32:33;100844.41;;;-0.23;100.00
48792;BME280;34587;48.816;9.420;2024-01-27T08:34:59;100834.97;;;-0.24;100.00
48792;BME280;34587;48.816;9.420;2024-01-27T08:37:25;100831.47;;;-0.41;100.00
48792;BME280;34587;48.816;9.420;2024-01-27T08:39:50;100840.00;;;-0.69;100.00
48792;BME280;34587;48.816;9.420;2024-01-27T08:42:16;100838.16;;;-0.99;100.00
48792;BME280;34587;48.816;9.420;2024-01-27T08:44:41;100832.81;;;-1.17;100.00
48792;BME280;34587;48.816;9.420;2024-01-27T08:47:07;100841.81;;;-1.36;100.00
48792;BME280;34587;48.816;9.420;2024-01-27T08:49:32;100822.41;;;-1.07;100.00
48792;BME280;34587;48.816;9.420;2024-01-27T08:51:58;100828.13;;;-1.11;100.00
48792;BME280;34587;48.816;9.420;2024-01-27T08:54:23;100819.09;;;-1.06;100.00
48792;BME280;34587;48.816;9.420;2024-01-27T08:56:49;100825.59;;;-0.68;100.00
48792;BME280;34587;48.816;9.420;2024-01-27T08:59:14;100829.88;;;-0.24;100.00
48792;BME280;34587;48.816;9.420;2024-01-27T09:01:39;100826.28;;;-0.43;100.00
48792;BME280;34587;48.816;9.420;2024-01-27T09:04:05;100824.09;;;-0.37;100.00
48792;BME280;34587;48.816;9.420;2024-01-27T09:06:30;100812.88;;;-0.11;100.00
48792;BME280;34587;48.816;9.420;2024-01-27T09:08:55;100809.34;;;0.02;100.00
48792;BME280;34587;48.816;9.420;2024-01-27T09:11:21;100803.91;;;-0.04;100.00
48792;BME280;34587;48.816;9.420;2024-01-27T09:13:52;100791.06;;;1.19;100.00
48792;BME280;34587;48.816;9.420;2024-01-27T09:16:17;100790.97;;;2.02;100.00
48792;BME280;34587;48.816;9.420;2024-01-27T09:18:43;100787.69;;;2.95;100.00
48792;BME280;34587;48.816;9.420;2024-01-27T09:21:08;100769.19;;;4.90;100.00
48792;BME280;34587;48.816;9.420;2024-01-27T09:23:34;100758.81;;;6.39;100.00
48792;BME280;34587;48.816;9.420;2024-01-27T09:25:59;100746.41;;;10.36;81.43
48792;BME280;34587;48.816;9.420;2024-01-27T09:28:25;100739.50;;;13.96;54.40
48792;BME280;34587;48.816;9.420;2024-01-27T09:30:51;100745.16;;;15.42;45.08
48792;BME280;34587;48.816;9.420;2024-01-27T09:33:16;100745.91;;;15.68;42.52
48792;BME280;34587;48.816;9.420;2024-01-27T09:35:45;100757.69;;;16.22;41.05
48792;BME280;34587;48.816;9.420;2024-01-27T09:38:10;100761.59;;;15.72;41.51
48792;BME280;34587;48.816;9.420;2024-01-27T09:40:37;100788.03;;;13.27;44.09
48792;BME280;34587;48.816;9.420;2024-01-27T09:43:03;100815.13;;;8.81;60.20
48792;BME280;34587;48.816;9.420;2024-01-27T09:45:29;100811.81;;;7.81;71.57
48792;BME280;34587;48.816;9.420;2024-01-27T09:47:56;100807.56;;;8.51;69.55
48792;BME280;34587;48.816;9.420;2024-01-27T09:50:24;100793.63;;;10.77;60.96
48792;BME280;34587;48.816;9.420;2024-01-27T09:52:50;100795.03;;;13.40;49.36
48792;BME280;34587;48.816;9.420;2024-01-27T09:55:15;100789.69;;;15.21;43.64
48792;BME280;34587;48.816;9.420;2024-01-27T09:57:41;100798.63;;;14.52;43.21
48792;BME280;34587;48.816;9.420;2024-01-27T10:00:10;100805.91;;;15.87;42.26
48792;BME280;34587;48.816;9.420;2024-01-27T10:02:40;100804.06;;;15.98;39.96
48792;BME280;34587;48.816;9.420;2024-01-27T10:05:08;100809.53;;;16.70;39.94
48792;BME280;34587;48.816;9.420;2024-01-27T10:07:33;100806.19;;;17.36;36.22
48792;BME280;34587;48.816;9.420;2024-01-27T10:09:59;100804.75;;;18.33;36.10
48792;BME280;34587;48.816;9.420;2024-01-27T10:12:26;100814.94;;;17.97;36.38
48792;BME280;34587;48.816;9.420;2024-01-27T10:14:52;100813.38;;;18.89;34.38
48792;BME280;34587;48.816;9.420;2024-01-27T10:17:21;100821.06;;;19.82;33.79
48792;BME280;34587;48.816;9.420;2024-01-27T10:20:02;100825.91;;;18.23;35.57
48792;BME280;34587;48.816;9.420;2024-01-27T10:22:29;100821.53;;;19.18;34.18
48792;BME280;34587;48.816;9.420;2024-01-27T10:24:54;100816.03;;;20.10;33.90
48792;BME280;34587;48.816;9.420;2024-01-27T10:27:21;100813.38;;;20.10;32.67
48792;BME280;34587;48.816;9.420;2024-01-27T10:29:56;100819.16;;;17.47;36.98
48792;BME280;34587;48.816;9.420;2024-01-27T10:32:21;100828.09;;;14.91;41.12
48792;BME280;34587;48.816;9.420;2024-01-27T10:35:11;100819.97;;;16.77;40.40
48792;BME280;34587;48.816;9.420;2024-01-27T10:37:36;100821.19;;;14.72;42.33
48792;BME280;34587;48.816;9.420;2024-01-27T10:40:08;100827.38;;;12.34;48.32
48792;BME280;34587;48.816;9.420;2024-01-27T10:42:35;100825.31;;;13.24;47.08
48792;BME280;34587;48.816;9.420;2024-01-27T10:45:02;100833.28;;;12.15;50.50
48792;BME280;34587;48.816;9.420;2024-01-27T10:47:29;100832.22;;;11.20;57.99
48792;BME280;34587;48.816;9.420;2024-01-27T10:49:56;100811.97;;;12.63;53.67
48792;BME280;34587;48.816;9.420;2024-01-27T10:52:28;100801.91;;;15.19;44.24
48792;BME280;34587;48.816;9.420;2024-01-27T10:55:01;100802.59;;;16.66;39.96
48792;BME280;34587;48.816;9.420;2024-01-27T10:57:29;100797.34;;;16.69;40.96
48792;BME280;34587;48.816;9.420;2024-01-27T10:59:56;100794.75;;;15.54;42.62
48792;BME280;34587;48.816;9.420;2024-01-27T11:02:23;100793.75;;;16.83;41.46
48792;BME280;34587;48.816;9.420;2024-01-27T11:04:49;100791.53;;;14.97;44.90
48792;BME280;34587;48.816;9.420;2024-01-27T11:07:16;100771.69;;;16.13;42.93
48792;BME280;34587;48.816;9.420;2024-01-27T11:09:44;100765.88;;;15.82;44.07
48792;BME280;34587;48.816;9.420;2024-01-27T11:12:11;100755.34;;;18.55;38.58
48792;BME280;34587;48.816;9.420;2024-01-27T11:14:37;100742.44;;;18.89;37.35
48792;BME280;34587;48.816;9.420;2024-01-27T11:17:02;100737.38;;;18.32;38.29
48792;BME280;34587;48.816;9.420;2024-01-27T11:19:27;100739.53;;;18.58;38.15
48792;BME280;34587;48.816;9.420;2024-01-27T11:22:03;100731.47;;;19.12;38.38
48792;BME280;34587;48.816;9.420;2024-01-27T11:24:29;100742.59;;;18.35;39.98
48792;BME280;34587;48.816;9.420;2024-01-27T11:27:05;100733.63;;;16.70;43.09
48792;BME280;34587;48.816;9.420;2024-01-27T11:32:03;100736.63;;;16.34;45.05
48792;BME280;34587;48.816;9.420;2024-01-27T11:34:41;100741.22;;;14.37;49.22
48792;BME280;34587;48.816;9.420;2024-01-27T11:37:14;100737.53;;;15.08;52.35
48792;BME280;34587;48.816;9.420;2024-01-27T11:39:39;100730.75;;;14.71;47.52
48792;BME280;34587;48.816;9.420;2024-01-27T11:42:06;100730.81;;;14.19;49.74
48792;BME280;34587;48.816;9.420;2024-01-27T11:44:35;100729.06;;;14.24;49.97
48792;BME280;34587;48.816;9.420;2024-01-27T11:47:00;100725.38;;;14.98;48.19
48792;BME280;34587;48.816;9.420;2024-01-27T11:49:26;100722.13;;;14.29;52.05
48792;BME280;34587;48.816;9.420;2024-01-27T11:51:51;100726.34;;;11.72;59.64
48792;BME280;34587;48.816;9.420;2024-01-27T11:54:17;100702.81;;;14.88;51.59
48792;BME280;34587;48.816;9.420;2024-01-27T11:56:42;100704.69;;;14.61;47.67
48792;BME280;34587;48.816;9.420;2024-01-27T11:59:07;100695.69;;;15.21;48.28
48792;BME280;34587;48.816;9.420;2024-01-27T12:01:33;100689.41;;;16.46;45.18
48792;BME280;34587;48.816;9.420;2024-01-27T12:03:58;100693.75;;;15.47;44.49
48792;BME280;34587;48.816;9.420;2024-01-27T12:06:23;100690.22;;;15.57;45.06
48792;BME280;34587;48.816;9.420;2024-01-27T12:08:53;100691.28;;;16.35;41.32
48792;BME280;34587;48.816;9.420;2024-01-27T12:11:18;100691.38;;;16.24;42.97
48792;BME280;34587;48.816;9.420;2024-01-27T12:13:43;100678.72;;;17.32;41.31
48792;BME280;34587;48.816;9.420;2024-01-27T12:16:09;100688.69;;;15.23;41.93
48792;BME280;34587;48.816;9.420;2024-01-27T12:18:35;100670.19;;;17.18;40.80
48792;BME280;34587;48.816;9.420;2024-01-27T12:21:00;100704.38;;;12.38;47.37
48792;BME280;34587;48.816;9.420;2024-01-27T12:23:25;100695.09;;;14.67;46.24
48792;BME280;34587;48.816;9.420;2024-01-27T12:25:54;100697.81;;;13.35;48.21
48792;BME280;34587;48.816;9.420;2024-01-27T12:28:22;100680.56;;;16.56;41.43
48792;BME280;34587;48.816;9.420;2024-01-27T12:30:49;100675.28;;;17.83;37.64
48792;BME280;34587;48.816;9.420;2024-01-27T12:33:15;100664.25;;;19.39;35.25
48792;BME280;34587;48.816;9.420;2024-01-27T12:35:40;100662.38;;;20.45;33.81
48792;BME280;34587;48.816;9.420;2024-01-27T12:38:05;100658.75;;;19.48;32.94
48792;BME280;34587;48.816;9.420;2024-01-27T12:40:31;100665.66;;;18.33;34.64
48792;BME280;34587;48.816;9.420;2024-01-27T12:42:57;100677.84;;;14.04;38.93
48792;BME280;34587;48.816;9.420;2024-01-27T12:45:22;100680.31;;;11.54;48.28
48792;BME280;34587;48.816;9.420;2024-01-27T12:47:48;100685.81;;;10.28;57.91
48792;BME280;34587;48.816;9.420;2024-01-27T12:50:13;100673.47;;;10.13;57.18
48792;BME280;34587;48.816;9.420;2024-01-27T12:52:39;100672.97;;;9.81;55.47
48792;BME280;34587;48.816;9.420;2024-01-27T12:55:05;100672.66;;;9.60;61.12
48792;BME280;34587;48.816;9.420;2024-01-27T12:57:31;100666.28;;;9.39;61.82
48792;BME280;34587;48.816;9.420;2024-01-27T12:59:56;100667.53;;;9.13;62.92
48792;BME280;34587;48.816;9.420;2024-01-27T13:02:21;100669.28;;;9.14;58.64
48792;BME280;34587;48.816;9.420;2024-01-27T13:04:47;100667.41;;;9.07;62.73
48792;BME280;34587;48.816;9.420;2024-01-27T13:07:12;100659.72;;;9.10;60.90
48792;BME280;34587;48.816;9.420;2024-01-27T13:09:39;100664.16;;;9.17;58.23
48792;BME280;34587;48.816;9.420;2024-01-27T13:12:05;100658.94;;;9.14;64.08
48792;BME280;34587;48.816;9.420;2024-01-27T13:14:30;100655.44;;;9.12;59.94
48792;BME280;34587;48.816;9.420;2024-01-27T13:16:55;100664.03;;;9.11;59.44
48792;BME280;34587;48.816;9.420;2024-01-27T13:19:21;100657.59;;;9.37;58.55
48792;BME280;34587;48.816;9.420;2024-01-27T13:21:47;100658.47;;;9.36;60.03
48792;BME280;34587;48.816;9.420;2024-01-27T13:24:12;100647.31;;;9.40;62.76
48792;BME280;34587;48.816;9.420;2024-01-27T13:26:38;100657.69;;;9.42;61.10
48792;BME280;34587;48.816;9.420;2024-01-27T13:29:04;100645.59;;;9.39;63.04
48792;BME280;34587;48.816;9.420;2024-01-27T13:31:29;100647.31;;;9.40;65.67
48792;BME280;34587;48.816;9.420;2024-01-27T13:33:55;100652.59;;;9.46;65.95
48792;BME280;34587;48.816;9.420;2024-01-27T13:36:22;100643.84;;;9.38;64.36
48792;BME280;34587;48.816;9.420;2024-01-27T13:38:47;100650.13;;;9.54;62.88
48792;BME280;34587;48.816;9.420;2024-01-27T13:41:12;100641.59;;;9.60;60.45
48792;BME280;34587;48.816;9.420;2024-01-27T13:43:38;100644.28;;;9.66;61.48
48792;BME280;34587;48.816;9.420;2024-01-27T13:46:03;100639.22;;;9.72;61.57
48792;BME280;34587;48.816;9.420;2024-01-27T13:48:29;100644.56;;;9.84;59.74
48792;BME280;34587;48.816;9.420;2024-01-27T13:50:54;100658.28;;;9.77;59.70
48792;BME280;34587;48.816;9.420;2024-01-27T13:53:19;100653.66;;;9.58;61.25
48792;BME280;34587;48.816;9.420;2024-01-27T13:55:45;100644.97;;;9.54;61.61
48792;BME280;34587;48.816;9.420;2024-01-27T13:58:10;100647.53;;;9.52;63.89
48792;BME280;34587;48.816;9.420;2024-01-27T14:00:35;100640.50;;;9.45;62.01
48792;BME280;34587;48.816;9.420;2024-01-27T14:03:01;100644.88;;;9.48;62.10
48792;BME280;34587;48.816;9.420;2024-01-27T14:05:26;100643.03;;;9.42;62.83
48792;BME280;34587;48.816;9.420;2024-01-27T14:07:51;100635.06;;;9.30;62.29
48792;BME280;34587;48.816;9.420;2024-01-27T14:10:17;100628.19;;;9.32;63.82
48792;BME280;34587;48.816;9.420;2024-01-27T14:12:42;100632.84;;;9.01;63.67
48792;BME280;34587;48.816;9.420;2024-01-27T14:15:08;100639.66;;;8.96;63.43
48792;BME280;34587;48.816;9.420;2024-01-27T14:17:35;100620.81;;;9.04;64.33
48792;BME280;34587;48.816;9.420;2024-01-27T14:20:02;100617.34;;;9.01;64.26
48792;BME280;34587;48.816;9.420;2024-01-27T14:22:28;100607.06;;;9.05;64.60
48792;BME280;34587;48.816;9.420;2024-01-27T14:24:53;100608.53;;;8.92;66.52
48792;BME280;34587;48.816;9.420;2024-01-27T14:27:18;100613.81;;;8.98;64.30
48792;BME280;34587;48.816;9.420;2024-01-27T14:29:51;100607.88;;;9.04;64.39
48792;BME280;34587;48.816;9.420;2024-01-27T14:32:16;100611.41;;;9.09;63.05
48792;BME280;34587;48.816;9.420;2024-01-27T14:34:42;100612.94;;;8.96;62.24
48792;BME280;34587;48.816;9.420;2024-01-27T14:37:07;100617.00;;;8.83;64.10
48792;BME280;34587;48.816;9.420;2024-01-27T14:39:33;100615.00;;;8.70;64.91
48792;BME280;34587;48.816;9.420;2024-01-27T14:41:59;100609.84;;;8.70;65.51
48792;BME280;34587;48.816;9.420;2024-01-27T14:44:24;100605.22;;;8.54;65.60
48792;BME280;34587;48.816;9.420;2024-01-27T14:46:49;100612.53;;;8.32;64.78
48792;BME280;34587;48.816;9.420;2024-01-27T14:49:15;100607.59;;;8.41;65.58
48792;BME280;34587;48.816;9.420;2024-01-27T14:51:40;100606.41;;;8.29;66.17
48792;BME280;34587;48.816;9.420;2024-01-27T14:54:06;100600.88;;;8.12;66.72
48792;BME280;34587;48.816;9.420;2024-01-27T14:56:31;100603.88;;;7.91;68.67
48792;BME280;34587;48.816;9.420;2024-01-27T14:58:58;100597.94;;;7.93;69.96
48792;BME280;34587;48.816;9.420;2024-01-27T15:01:23;100593.41;;;7.83;68.55
48792;BME280;34587;48.816;9.420;2024-01-27T15:03:48;100587.88;;;7.68;70.86
48792;BME280;34587;48.816;9.420;2024-01-27T15:06:17;100588.03;;;7.74;71.28
48792;BME280;34587;48.816;9.420;2024-01-27T15:08:42;100598.94;;;7.64;72.02
48792;BME280;34587;48.816;9.420;2024-01-27T15:11:10;100600.56;;;7.59;73.07
48792;BME280;34587;48.816;9.420;2024-01-27T15:13:35;100602.97;;;7.51;73.78
48792;BME280;34587;48.816;9.420;2024-01-27T15:16:01;100601.94;;;7.44;73.42
48792;BME280;34587;48.816;9.420;2024-01-27T15:18:26;100593.28;;;7.41;72.67
48792;BME280;34587;48.816;9.420;2024-01-27T15:20:51;100591.19;;;7.26;73.63
48792;BME280;34587;48.816;9.420;2024-01-27T15:23:17;100592.38;;;7.06;76.92
48792;BME280;34587;48.816;9.420;2024-01-27T15:25:43;100586.81;;;6.89;79.75
48792;BME280;34587;48.816;9.420;2024-01-27T15:28:10;100595.38;;;6.88;82.16
48792;BME280;34587;48.816;9.420;2024-01-27T15:30:35;100594.91;;;6.71;83.65
48792;BME280;34587;48.816;9.420;2024-01-27T15:33:01;100598.06;;;6.61;86.35
48792;BME280;34587;48.816;9.420;2024-01-27T15:35:27;100592.88;;;6.58;85.19
48792;BME280;34587;48.816;9.420;2024-01-27T15:37:56;100597.75;;;6.49;85.46
48792;BME280;34587;48.816;9.420;2024-01-27T15:40:22;100598.97;;;6.31;87.31
48792;BME280;34587;48.816;9.420;2024-01-27T15:42:50;100606.44;;;6.22;89.37
48792;BME280;34587;48.816;9.420;2024-01-27T15:45:16;100605.16;;;6.08;91.87
48792;BME280;34587;48.816;9.420;2024-01-27T15:47:41;100600.44;;;5.66;94.98
48792;BME280;34587;48.816;9.420;2024-01-27T15:50:08;100605.28;;;5.57;98.64
48792;BME280;34587;48.816;9.420;2024-01-27T15:52:36;100599.19;;;5.55;100.00
48792;BME280;34587;48.816;9.420;2024-01-27T15:55:01;100595.44;;;5.44;100.00
48792;BME280;34587;48.816;9.420;2024-01-27T15:57:27;100599.44;;;5.35;100.00
48792;BME280;34587;48.816;9.420;2024-01-27T15:59:52;100593.81;;;5.20;100.00
48792;BME280;34587;48.816;9.420;2024-01-27T16:02:18;100603.25;;;4.96;100.00
48792;BME280;34587;48.816;9.420;2024-01-27T16:04:43;100600.06;;;4.77;100.00
48792;BME280;34587;48.816;9.420;2024-01-27T16:07:08;100606.03;;;4.52;100.00
48792;BME280;34587;48.816;9.420;2024-01-27T16:09:33;100608.09;;;4.38;100.00
48792;BME280;34587;48.816;9.420;2024-01-27T16:12:07;100604.06;;;4.21;100.00
48792;BME280;34587;48.816;9.420;2024-01-27T16:14:33;100610.25;;;4.04;100.00
48792;BME280;34587;48.816;9.420;2024-01-27T16:17:01;100605.53;;;3.92;100.00
48792;BME280;34587;48.816;9.420;2024-01-27T16:19:27;100615.56;;;3.65;100.00
48792;BME280;34587;48.816;9.420;2024-01-27T16:21:52;100609.03;;;3.51;100.00
48792;BME280;34587;48.816;9.420;2024-01-27T16:24:17;100617.03;;;3.38;100.00
48792;BME280;34587;48.816;9.420;2024-01-27T16:26:43;100619.34;;;3.31;100.00
48792;BME280;34587;48.816;9.420;2024-01-27T16:29:08;100622.59;;;3.27;100.00
48792;BME280;34587;48.816;9.420;2024-01-27T16:31:34;100609.25;;;3.34;100.00
48792;BME280;34587;48.816;9.420;2024-01-27T16:33:59;100615.50;;;3.20;100.00
48792;BME280;34587;48.816;9.420;2024-01-27T16:36:24;100623.47;;;3.07;100.00
48792;BME280;34587;48.816;9.420;2024-01-27T16:38:49;100620.91;;;3.07;100.00
48792;BME280;34587;48.816;9.420;2024-01-27T16:41:15;100623.72;;;3.13;100.00
48792;BME280;34587;48.816;9.420;2024-01-27T16:43:41;100618.81;;;3.39;100.00
48792;BME280;34587;48.816;9.420;2024-01-27T16:46:06;100625.09;;;3.47;100.00
48792;BME280;34587;48.816;9.420;2024-01-27T16:48:34;100631.34;;;3.32;100.00
48792;BME280;34587;48.816;9.420;2024-01-27T16:50:59;100636.53;;;3.13;100.00
48792;BME280;34587;48.816;9.420;2024-01-27T16:53:25;100643.06;;;2.86;100.00
48792;BME280;34587;48.816;9.420;2024-01-27T16:55:51;100637.78;;;2.82;100.00
48792;BME280;34587;48.816;9.420;2024-01-27T16:58:16;100643.56;;;2.98;100.00
48792;BME280;34587;48.816;9.420;2024-01-27T17:00:41;100641.09;;;3.20;100.00
48792;BME280;34587;48.816;9.420;2024-01-27T17:03:07;100640.56;;;3.08;100.00